Iconium, Iowa
Current Conditions -  °F | °C
As of 11:50 AM on Sunday 25 Jan 2015 (Local Time) from KTVK Reporting Station
Light Snow Light Snow  
Wind Chill: 20°   Ceiling: 100
Heat Index: 32°   Visibility: 8mi
Dew Point: 32°   Wind: 18mph
Humidity: 100%   Direction: 10°N
Pressure: 29.81"   Gusts: 24mph
Location:  40.8706°N, 92.871°W
Report Text: KTVK 251750Z AUTO 01016G21KT 8SM -SN BKN001 OVC007 00/00 A2981 RMK AO2
Loading
Personal Weather Stations






























Interactive Weather Map New forecast layout! Learn more

10-Day Weather Forecast

Advertisements
Track Severe Weather on mobile